ADDS METAR Data INFO
IDs: Format: Raw Decoded Include TAF

Data at: 2052 UTC 26 May 2017

KCVB 262035Z AUTO 15004KT 7SM SCT030 BKN043 32/21 A2985 RMK AO2 T03240214
KCVB 262015Z AUTO 16004KT 7SM SCT028 BKN043 33/22 A2986 RMK AO2 T03280218
KCVB 261955Z AUTO 15005KT 7SM SCT028 SCT035 OVC043 31/22 A2987 RMK AO2 T03090215
KCVB 261935Z AUTO 16003KT 5SM HZ SCT026 BKN033 OVC043 30/22 A2987 RMK AO2 T03030215
KCVB 261915Z AUTO 14003KT 7SM SCT026 SCT033 OVC043 30/22 A2988 RMK AO2 T03000219
KCVB 261855Z AUTO 14005KT 7SM BKN026 BKN031 OVC038 30/22 A2988 RMK AO2 T02950218
KCVB 261815Z AUTO 14005KT 7SM BKN022 OVC029 29/22 A2990 RMK AO2 T02890218
KCVB 261755Z AUTO 14006KT 7SM BKN022 BKN029 OVC035 29/22 A2990 RMK AO2 T02890220 10290 20243
KCVB 261735Z AUTO 17008KT 7SM BKN019 BKN024 OVC033 29/22 A2990 RMK AO2 T02880219
KCVB 261715Z AUTO 16006KT 7SM SCT019 BKN027 OVC031 28/22 A2991 RMK AO2 T02810220
KCVB 261655Z AUTO 17006KT 10SM BKN019 OVC024 28/22 A2990 RMK AO2 T02750220
KCVB 261635Z AUTO 17008KT 7SM BKN018 OVC024 27/22 A2990 RMK AO2 T02720217
KCVB 261615Z AUTO 16008KT 10SM SCT018 OVC024 27/22 A2989 RMK AO2 T02710220
KCVB 261555Z AUTO 16007KT 10SM BKN018 OVC022 27/22 A2989 RMK AO2 T02700220
KCVB 261535Z AUTO 16009KT 10SM OVC016 27/22 A2989 RMK AO2 T02680220
KCVB 261515Z AUTO 15008KT 10SM OVC014 27/22 A2988 RMK AO2 T02650221
KCVB 261455Z AUTO 15008KT 10SM BKN012 OVC019 26/22 A2988 RMK AO2 T02620222
KCVB 261435Z AUTO 13005KT 10SM BKN012 OVC019 26/23 A2987 RMK AO2 T02600227
KCVB 261415Z AUTO 13006KT 10SM BKN012 OVC019 26/23 A2987 RMK AO2 T02550226
KCVB 261355Z AUTO 15004KT 10SM OVC012 25/23 A2987 RMK AO2 T02510226
KCVB 261335Z AUTO 14004KT 10SM OVC012 25/23 A2987 RMK AO2 T02490226
KCVB 261315Z AUTO 13006KT 10SM OVC010 25/23 A2986 RMK AO2 T02500225
KCVB 261255Z AUTO 13007KT 10SM OVC012 25/23 A2986 RMK AO2 T02480225
KCVB 261235Z AUTO 14005KT 10SM OVC012 25/23 A2985 RMK AO2 T02460227
KCVB 261215Z AUTO 13007KT 7SM OVC010 25/23 A2984 RMK AO2 T02450228
KCVB 261155Z AUTO 14008KT 7SM OVC010 25/23 A2983 RMK AO2 T02450227 10251 20244
KCVB 261135Z AUTO 14005KT 10SM OVC010 25/23 A2983 RMK AO2 T02450225
KCVB 261115Z AUTO 14006KT 10SM OVC010 25/23 A2983 RMK AO2 T02450226
KCVB 261055Z AUTO 15005KT 10SM OVC010 25/23 A2982 RMK AO2 T02450225
KCVB 261035Z AUTO 15005KT 10SM OVC010 25/22 A2981 RMK AO2 T02450222
KCVB 261015Z AUTO 15007KT 10SM OVC012 25/22 A2981 RMK AO2 T02450216
KCVB 260955Z AUTO 15007KT 10SM OVC012 25/22 A2982 RMK AO2 T02470215
KCVB 260935Z AUTO 15007KT 10SM OVC014 25/22 A2980 RMK AO2 T02480215
KCVB 260915Z AUTO 14008KT 10SM OVC014 25/22 A2980 RMK AO2 T02480215
KCVB 260855Z AUTO 15007KT 10SM OVC014 25/22 A2980 RMK AO2 T02500216
KCVB 260835Z AUTO 15007KT 10SM OVC014 25/22 A2979 RMK AO2 T02500216
KCVB 260815Z AUTO 15005KT 10SM OVC016 25/22 A2979 RMK AO2 T02510216
KCVB 260755Z AUTO 16005KT 10SM OVC016 25/22 A2980 RMK AO2 T02510216
KCVB 260735Z AUTO 16005KT 10SM OVC016 25/22 A2980 RMK AO2 T02510216
KCVB 260715Z AUTO 16005KT 10SM OVC018 25/22 A2980 RMK AO2 T02510216
KCVB 260655Z AUTO 16005KT 10SM OVC016 25/22 A2980 RMK AO2 T02510217
KCVB 260635Z AUTO 15007KT 10SM OVC012 25/22 A2980 RMK AO2 T02500217
KCVB 260615Z AUTO 15008KT 10SM OVC012 25/22 A2981 RMK AO2 T02500215
KCVB 260555Z AUTO 15007KT 10SM OVC012 25/22 A2980 RMK AO2 T02500215 10336 20250 403570152
KCVB 260535Z AUTO 14008KT 10SM OVC012 25/21 A2980 RMK AO2 T02500213
KCVB 260515Z AUTO 15008KT 10SM OVC012 25/21 A2980 RMK AO2 T02500212
KCVB 260455Z AUTO 14009KT 10SM OVC014 25/21 A2980 RMK AO2 T02500211
KCVB 260435Z AUTO 14008KT 10SM OVC014 25/21 A2979 RMK AO2 T02520210
KCVB 260415Z AUTO 13009KT 10SM OVC016 25/21 A2978 RMK AO2 T02520210
KCVB 260355Z AUTO 14011G15KT 10SM BKN018 25/21 A2977 RMK AO2 T02540208
KCVB 260335Z AUTO 13007KT 10SM SCT020 26/21 A2977 RMK AO2 T02590206
KCVB 260315Z AUTO 14008G15KT 10SM CLR 26/21 A2975 RMK AO2 T02640205
KCVB 260255Z AUTO 13005G16KT 10SM CLR 27/20 A2974 RMK AO2 T02700203
KCVB 260235Z AUTO 13006KT 10SM CLR 27/20 A2974 RMK AO2 T02730201
KCVB 260215Z AUTO 12006KT 10SM CLR 28/20 A2972 RMK AO2 T02780200
KCVB 260155Z AUTO 12006KT 10SM CLR 29/20 A2971 RMK AO2 T02850197
KCVB 260135Z AUTO 14007KT 10SM CLR 29/19 A2970 RMK AO2 T02940190
KCVB 260115Z AUTO 13008KT 10SM CLR 30/19 A2970 RMK AO2 T03020190
KCVB 260055Z AUTO 13011G14KT 10SM CLR 31/19 A2971 RMK AO2 T03120186
KCVB 260035Z AUTO 13008G17KT 7SM CLR 32/19 A2970 RMK AO2 T03200185
KCVB 260015Z AUTO 13012G17KT 7SM CLR 33/18 A2969 RMK AO2 T03280180
KCVB 252355Z AUTO 14010KT 10SM CLR 34/17 A2970 RMK AO2 T03370171 10357 20302
KCVB 252335Z AUTO 14013KT 7SM CLR 35/16 A2969 RMK AO2 T03470160
KCVB 252315Z AUTO 14006G16KT 7SM CLR 35/16 A2970 RMK AO2 T03510158
KCVB 252255Z AUTO 15010G15KT 7SM CLR 36/16 A2970 RMK AO2 T03560156
KCVB 252235Z AUTO 15010G17KT 7SM CLR 36/16 A2970 RMK AO2 T03570156
KCVB 252215Z AUTO 16009G16KT 10SM CLR 36/16 A2970 RMK AO2 T03560156
KCVB 252155Z AUTO 16011G17KT 7SM CLR 35/16 A2971 RMK AO2 T03500156
KCVB 252135Z AUTO 16008G14KT 10SM CLR 36/16 A2972 RMK AO2 T03550157
KCVB 252115Z AUTO 16010G15KT 10SM CLR 35/16 A2972 RMK AO2 T03480155
KCVB 252055Z AUTO 15013G19KT 7SM CLR 35/16 A2973 RMK AO2 T03460155
KCVB 252035Z AUTO 17011G15KT 7SM CLR 34/16 A2973 RMK AO2 T03420157
KCVB 252015Z AUTO 17010G20KT 7SM CLR 34/16 A2974 RMK AO2 T03410159
KCVB 251955Z AUTO 16011G15KT 7SM CLR 34/16 A2975 RMK AO2 T03360157
KCVB 251935Z AUTO 20012G20KT 10SM CLR 33/15 A2977 RMK AO2 T03280153
KCVB 251915Z AUTO 17011G16KT 10SM CLR 33/15 A2977 RMK AO2 T03280153
KCVB 251855Z AUTO 16009G15KT 7SM CLR 32/15 A2978 RMK AO2 T03210151
KCVB 251835Z AUTO 15011G18KT 10SM CLR 32/15 A2979 RMK AO2 T03160153
KCVB 251815Z AUTO 17008G17KT 10SM CLR 31/15 A2980 RMK AO2 T03110154
KCVB 251755Z AUTO 18013G17KT 10SM CLR 30/15 A2980 RMK AO2 T03020153 10302 20163
KCVB 251735Z AUTO 18009G16KT 7SM CLR 30/15 A2981 RMK AO2 T02990154
KCVB 251715Z AUTO 19010G18KT 7SM CLR 29/15 A2982 RMK AO2 T02900150
KCVB 251655Z AUTO 19010G20KT 150V210 10SM CLR 29/15 A2982 RMK AO2 T02850147
KCVB 251635Z AUTO 20012G17KT 7SM CLR 28/14 A2982 RMK AO2 T02790142
KCVB 251615Z AUTO 17011G15KT 10SM CLR 27/14 A2982 RMK AO2 T02710138
KCVB 251555Z AUTO 17009G14KT 150V210 10SM CLR 27/13 A2982 RMK AO2 T02700133
KCVB 251535Z AUTO 16008KT 10SM CLR 26/13 A2983 RMK AO2 T02590129
KCVB 251515Z AUTO 17011G15KT 140V200 10SM CLR 25/13 A2984 RMK AO2 T02540133
KCVB 251455Z AUTO 18008KT 10SM CLR 24/14 A2983 RMK AO2 T02430137
KCVB 251435Z AUTO 19008KT 10SM CLR 23/14 A2983 RMK AO2 T02310138
KCVB 251415Z AUTO 18009KT 10SM CLR 22/14 A2983 RMK AO2 T02200138
KCVB 251355Z AUTO 18009KT 7SM CLR 21/14 A2983 RMK AO2 T02110141
KCVB 251335Z AUTO 20008KT 10SM CLR 20/14 A2983 RMK AO2 T01990137
KCVB 251315Z AUTO 18004KT 10SM CLR 19/13 A2983 RMK AO2 T01870129
KCVB 251255Z AUTO 00000KT 10SM CLR 18/12 A2983 RMK AO2 T01770120
KCVB 251235Z AUTO 16003KT 7SM CLR 17/12 A2982 RMK AO2 T01700115
KCVB 251215Z AUTO 00000KT 10SM CLR 17/11 A2982 RMK AO2 T01650110
KCVB 251155Z AUTO 00000KT 10SM CLR 16/11 A2981 RMK AO2 T01620108 10176 20152
KCVB 251135Z AUTO 00000KT 10SM CLR 16/11 A2981 RMK AO2 T01600107
KCVB 251115Z AUTO 00000KT 10SM CLR 16/11 A2980 RMK AO2 T01600106
KCVB 251055Z AUTO 00000KT 10SM CLR 16/11 A2980 RMK AO2 T01600105
KCVB 251035Z AUTO 00000KT 10SM CLR 16/11 A2979 RMK AO2 T01600106
KCVB 251015Z AUTO 16003KT 10SM CLR 16/11 A2979 RMK AO2 T01600106
KCVB 250955Z AUTO 16003KT 10SM CLR 17/11 A2979 RMK AO2 T01660105
KCVB 250935Z AUTO 00000KT 10SM CLR 17/11 A2978 RMK AO2 T01680107
KCVB 250915Z AUTO 15004KT 10SM CLR 17/11 A2978 RMK AO2 T01690108
KCVB 250855Z AUTO 16003KT 10SM CLR 17/11 A2978 RMK AO2 T01660110


Page loaded:  20:52 UTC  |   01:52 PM Pacific  |   02:52 PM Mountain  |   03:52 PM Central  |   04:52 PM Eastern

 

ADVISORIES

FORECASTS

FORECASTS

OBSERVATIONS

USER TOOLS

ABOUT US